SIK0965 LIBC-LIRQ
Flight info
| Callsign | SIK0965 |
|---|---|
| Flight time | N/A |
| Altitude | 43000 |
| Route | CDC DCT SOR DCT TEA DCT IBRID |
| Aircraft | C750/M-SBDE3FGHRWXY/S |
Departure
| Time | 2026-04-29 17:35 |
|---|---|
| Airport | Crotone Sant'Anna Pythagoras Airport (LIBC) |
Arrival
| Time | N/A |
|---|---|
| Airport | Florence Airport, Peretola (LIRQ) |
| Time | Latitude | Longitude | Altitude | Speed | Heading |
|---|---|---|---|---|---|
| 2026-04-29 17:20 | 38.99648 | 17.07712 | 527 ft | 0 kts | 304° |
| 2026-04-29 17:27 | 38.99641 | 17.07727 | 527 ft | 4 kts | 298° |
| 2026-04-29 17:27 | 38.99631 | 17.07758 | 526 ft | 4 kts | 280° |
| 2026-04-29 17:27 | 38.99629 | 17.07793 | 525 ft | 4 kts | 268° |
| 2026-04-29 17:27 | 38.99628 | 17.07820 | 524 ft | 4 kts | 326° |
| 2026-04-29 17:28 | 38.99622 | 17.07824 | 524 ft | 1 kts | 349° |
| 2026-04-29 17:29 | 38.99581 | 17.07834 | 523 ft | 11 kts | 348° |
| 2026-04-29 17:29 | 38.99561 | 17.07840 | 523 ft | 0 kts | 347° |
| 2026-04-29 17:30 | 38.99562 | 17.07840 | 523 ft | 0 kts | 348° |
| 2026-04-29 17:30 | 38.99564 | 17.07839 | 523 ft | 2 kts | 348° |
| 2026-04-29 17:30 | 38.99593 | 17.07833 | 523 ft | 6 kts | 2° |
| 2026-04-29 17:30 | 38.99637 | 17.07891 | 523 ft | 11 kts | 69° |
| 2026-04-29 17:31 | 38.99652 | 17.07944 | 522 ft | 1 kts | 70° |
| 2026-04-29 17:31 | 38.99663 | 17.07983 | 522 ft | 9 kts | 72° |
| 2026-04-29 17:31 | 38.99668 | 17.08012 | 521 ft | 4 kts | 63° |
| 2026-04-29 17:31 | 38.99726 | 17.08021 | 520 ft | 14 kts | 350° |
| 2026-04-29 17:32 | 38.99833 | 17.07993 | 521 ft | 17 kts | 349° |
| 2026-04-29 17:32 | 38.99945 | 17.07968 | 523 ft | 15 kts | 349° |
| 2026-04-29 17:32 | 39.00045 | 17.07942 | 524 ft | 16 kts | 349° |
| 2026-04-29 17:32 | 39.00159 | 17.07912 | 525 ft | 18 kts | 349° |
| 2026-04-29 17:33 | 39.00288 | 17.07881 | 526 ft | 20 kts | 349° |
| 2026-04-29 17:33 | 39.00420 | 17.07848 | 526 ft | 19 kts | 349° |
| 2026-04-29 17:33 | 39.00533 | 17.07804 | 528 ft | 16 kts | 319° |
| 2026-04-29 17:33 | 39.00602 | 17.07779 | 527 ft | 10 kts | 55° |
| 2026-04-29 17:34 | 39.00569 | 17.07814 | 528 ft | 8 kts | 177° |
| 2026-04-29 17:34 | 39.00499 | 17.07828 | 528 ft | 1 kts | 168° |
| 2026-04-29 17:34 | 39.00495 | 17.07829 | 528 ft | 5 kts | 169° |
| 2026-04-29 17:34 | 39.00347 | 17.07868 | 525 ft | 54 kts | 169° |
| 2026-04-29 17:35 | 38.99314 | 17.08137 | 776 ft | 136 kts | 169° |
| 2026-04-29 17:35 | 38.97721 | 17.08538 | 1883 ft | 151 kts | 175° |
| 2026-04-29 17:35 | 38.96650 | 17.08798 | 2563 ft | 162 kts | 174° |
| 2026-04-29 17:36 | 38.95519 | 17.08764 | 3150 ft | 169 kts | 205° |
| 2026-04-29 17:36 | 38.94508 | 17.07904 | 3644 ft | 186 kts | 227° |
| 2026-04-29 17:36 | 38.94008 | 17.06956 | 3852 ft | 203 kts | 246° |
| 2026-04-29 17:36 | 38.93825 | 17.05099 | 4350 ft | 217 kts | 278° |
| 2026-04-29 17:37 | 38.94471 | 17.03260 | 4822 ft | 243 kts | 304° |
| 2026-04-29 17:37 | 38.95615 | 17.01521 | 5475 ft | 261 kts | 310° |
| 2026-04-29 17:37 | 38.96800 | 16.99755 | 6538 ft | 262 kts | 309° |
| 2026-04-29 17:37 | 38.97952 | 16.97916 | 7518 ft | 266 kts | 308° |
| 2026-04-29 17:38 | 38.99111 | 16.96048 | 8637 ft | 269 kts | 309° |
| 2026-04-29 17:38 | 39.00293 | 16.94178 | 9761 ft | 271 kts | 309° |
| 2026-04-29 17:38 | 39.01501 | 16.92275 | 10482 ft | 284 kts | 309° |
| 2026-04-29 17:38 | 39.02803 | 16.90212 | 10720 ft | 311 kts | 309° |
| 2026-04-29 17:39 | 39.04224 | 16.87953 | 10873 ft | 337 kts | 309° |
| 2026-04-29 17:39 | 39.05711 | 16.85592 | 11652 ft | 339 kts | 309° |
| 2026-04-29 17:39 | 39.07205 | 16.83220 | 12422 ft | 344 kts | 308° |
| 2026-04-29 17:39 | 39.08724 | 16.80804 | 13133 ft | 350 kts | 308° |
| 2026-04-29 17:40 | 39.10265 | 16.78351 | 13871 ft | 355 kts | 308° |
| 2026-04-29 17:40 | 39.11822 | 16.75871 | 14543 ft | 358 kts | 308° |
| 2026-04-29 17:40 | 39.13391 | 16.73370 | 15254 ft | 360 kts | 308° |
| 2026-04-29 17:40 | 39.14972 | 16.70848 | 15935 ft | 364 kts | 308° |
| 2026-04-29 17:41 | 39.16566 | 16.68304 | 16667 ft | 366 kts | 308° |
| 2026-04-29 17:41 | 39.18170 | 16.65740 | 17405 ft | 369 kts | 308° |
| 2026-04-29 17:41 | 39.19790 | 16.63150 | 18143 ft | 373 kts | 308° |
| 2026-04-29 17:41 | 39.21426 | 16.60533 | 18833 ft | 376 kts | 308° |
| 2026-04-29 17:42 | 39.23071 | 16.57898 | 19554 ft | 378 kts | 308° |
| 2026-04-29 17:42 | 39.24728 | 16.55241 | 20262 ft | 382 kts | 307° |
| 2026-04-29 17:42 | 39.26400 | 16.52559 | 20980 ft | 385 kts | 307° |
| 2026-04-29 17:42 | 39.28087 | 16.49851 | 21701 ft | 388 kts | 307° |
| 2026-04-29 17:43 | 39.29786 | 16.47119 | 22399 ft | 392 kts | 307° |
| 2026-04-29 17:43 | 39.31501 | 16.44361 | 23058 ft | 396 kts | 307° |
| 2026-04-29 17:43 | 39.33232 | 16.41575 | 23729 ft | 399 kts | 307° |
| 2026-04-29 17:43 | 39.34977 | 16.38764 | 24287 ft | 403 kts | 307° |
| 2026-04-29 17:44 | 39.36711 | 16.35966 | 24880 ft | 406 kts | 307° |
| 2026-04-29 17:44 | 39.38480 | 16.33110 | 25443 ft | 409 kts | 307° |
| 2026-04-29 17:44 | 39.40263 | 16.30229 | 26010 ft | 412 kts | 307° |
| 2026-04-29 17:44 | 39.42060 | 16.27325 | 26585 ft | 415 kts | 307° |
| 2026-04-29 17:45 | 39.43869 | 16.24396 | 27147 ft | 418 kts | 307° |
| 2026-04-29 17:45 | 39.45691 | 16.21444 | 27697 ft | 422 kts | 307° |
| 2026-04-29 17:45 | 39.47528 | 16.18466 | 28258 ft | 425 kts | 307° |
| 2026-04-29 17:45 | 39.48350 | 16.17133 | 28507 ft | 426 kts | 307° |